Pagrindinis puslapis
METAR-TAF:

METAR-TAF

Oro uostai :

Havana, Kuba

platuma: 22-59N, ilguma: 082-24W, Aukštis: 59 m

Dabartinis oras

Ataskaita buvo paskelbta 42 minutes, ne 07:55 UTC
Vėjas 1 kt nuo kintamojo kryptimis
Temperatūra 16°C
Drėgmė 100%
Slėgis 1018 hPa
Matomumas: 9000 m
Mažai debesys ne aukštis 3000 ft
Išsisklaidę debesys ne aukštis 7000 ft

METAR: MUHA 230755Z VRB01KT 9000 FEW030 SCT070 16/16 Q1018

Laikas: 03:37 (08:37 UTC)

Prognozė

Ataskaita buvo paskelbta 3 valandos ir 37 minutes, ne 05:00 UTC
Prognozė galioja nuo 23 metu 06 UTC su 24 metu 06 UTC
Vėjas 3 kt nuo kintamojo kryptimis
Matomumas: 9000 m
Išsisklaidę debesys ne aukštis 3000 ft
Tapsmas
nuo 23 metu 14 UTC su 23 metu 16 UTC
Vėjas 10 kt iš Rytų/Šiaurės Rytų
Tapsmas
nuo 24 metu 04 UTC su 24 metu 06 UTC
Vėjas 5 kt iš Rytų
Mažai debesys ne aukštis 3000 ft

TAF: MUHA 230500Z 2306/2406 VRB03KT 9000 SCT030 BECMG 2314/2316 07010KT BECMG 2404/2406 09005KT FEW030

Orai ataskaitas ir orų prognozės (METAR, TAF).

turimą stotys yra geltonos ir raudonos taškus žemėlapyje.

Perkelti pele per norėdami pamatyti stoties vardą.

Tada spustelėkite, norėdami matyti oro stebėjimo ir prognozės.

Norėdami pakeisti žemėlapį: spustelėkite ant žalios mygtukų su juodo kryžiaus žemyn,; žalią mygtuką su brūkšneliu, jei norite nutolinti; arba žalių rodyklių gretimoms žemėlapius.


METAR-TAF: